^^
Meteo Knjazevac Station Historical Data
Daily Summary for June 23, 2022 Units:  Both    English   Metric
Daily Weekly Monthly Yearly Custom
  High: Low: Average:
Temperature: 70 °F /  21.1 °C 62.6 °F /  17 °C 65.9 °F /  18.8 °C
Dew Point: 62.4 °F /  16.9 °C 59.6 °F /  15.3 °C 61 °F /  16.1 °C
Humidity: 91% 77% 84%
Wind Speed: 3mph /  4.8km/h - 0.6mph /  1km/h
Wind Gust: 9mph /  14.5km/h - -
Wind- - WSW
Pressure: 29.97 in /  1014.8 hPa 29.92 in /  1013.1 hPa -
Precipitation: 0.00 in /  0 mm    
Historical Graphs
 
 
Tabular Data for June 23, 2022
Time Temperature Dew Point Pressure Wind Wind Speed Wind Gust Humidity Rainfall Rate (Hourly) solar Conditions
00:10 70 °F /  21.1 °C 62.4 °F /  16.9 °C 29.97in /  1014.8hPa West 1mph /  1.6km/h 2mph /  3.2km/h 77% 0.00in /  0mm 0 W/m2
00:20 69.6 °F /  20.9 °C 62.1 °F /  16.7 °C 29.97in /  1014.8hPa ESE 1mph /  1.6km/h 3mph /  4.8km/h 77% 0.00in /  0mm 0 W/m2
00:30 69.4 °F /  20.8 °C 62.3 °F /  16.8 °C 29.97in /  1014.8hPa East 1mph /  1.6km/h 3mph /  4.8km/h 78% 0.00in /  0mm 0 W/m2
00:40 69.1 °F /  20.6 °C 62.3 °F /  16.8 °C 29.96in /  1014.4hPa Calm   5mph /  8km/h 79% 0.00in /  0mm 0 W/m2
00:50 68.5 °F /  20.3 °C 62.1 °F /  16.7 °C 29.96in /  1014.4hPa Calm   3mph /  4.8km/h 80% 0.00in /  0mm 0 W/m2
01:00 68.2 °F /  20.1 °C 61.8 °F /  16.6 °C 29.96in /  1014.4hPa West 1mph /  1.6km/h 4mph /  6.4km/h 80% 0.00in /  0mm 0 W/m2
01:10 67.8 °F /  19.9 °C 61.8 °F /  16.6 °C 29.96in /  1014.4hPa West 2mph /  3.2km/h 3mph /  4.8km/h 81% 0.00in /  0mm 0 W/m2
01:20 67.5 °F /  19.7 °C 61.4 °F /  16.3 °C 29.96in /  1014.4hPa Calm   3mph /  4.8km/h 81% 0.00in /  0mm 0 W/m2
01:30 67.3 °F /  19.6 °C 61.2 °F /  16.2 °C 29.96in /  1014.4hPa Calm   3mph /  4.8km/h 81% 0.00in /  0mm 0 W/m2
01:40 67.5 °F /  19.7 °C 61.1 °F /  16.2 °C 29.95in /  1014.1hPa Calm   3mph /  4.8km/h 80% 0.00in /  0mm 0 W/m2
01:50 67.6 °F /  19.8 °C 61.6 °F /  16.4 °C 29.95in /  1014.1hPa SW 1mph /  1.6km/h 5mph /  8km/h 81% 0.00in /  0mm 0 W/m2
02:00 67.6 °F /  19.8 °C 61.6 °F /  16.4 °C 29.95in /  1014.1hPa Calm   2mph /  3.2km/h 81% 0.00in /  0mm 0 W/m2
02:10 67.3 °F /  19.6 °C 61.3 °F /  16.3 °C 29.95in /  1014.1hPa SW 1mph /  1.6km/h 2mph /  3.2km/h 81% 0.00in /  0mm 0 W/m2
02:30 66.7 °F /  19.3 °C 61.4 °F /  16.3 °C 29.95in /  1014.1hPa West 1mph /  1.6km/h 2mph /  3.2km/h 83% 0.00in /  0mm 0 W/m2
02:50 66.2 °F /  19 °C 61.2 °F /  16.2 °C 29.94in /  1013.8hPa Calm   2mph /  3.2km/h 84% 0.00in /  0mm 0 W/m2
03:00 66 °F /  18.9 °C 61 °F /  16.1 °C 29.94in /  1013.8hPa NNW 1mph /  1.6km/h 3mph /  4.8km/h 84% 0.00in /  0mm 0 W/m2
03:10 65.8 °F /  18.8 °C 61.2 °F /  16.2 °C 29.94in /  1013.8hPa West 1mph /  1.6km/h 2mph /  3.2km/h 85% 0.00in /  0mm 0 W/m2
03:20 65.7 °F /  18.7 °C 61.1 °F /  16.2 °C 29.93in /  1013.4hPa Calm   3mph /  4.8km/h 85% 0.00in /  0mm 0 W/m2
03:30 65.5 °F /  18.6 °C 60.9 °F /  16.1 °C 29.93in /  1013.4hPa Calm   2mph /  3.2km/h 85% 0.00in /  0mm 0 W/m2
03:40 65.3 °F /  18.5 °C 60.7 °F /  15.9 °C 29.93in /  1013.4hPa Calm   2mph /  3.2km/h 85% 0.00in /  0mm 0 W/m2
03:50 65.1 °F /  18.4 °C 60.8 °F /  16 °C 29.94in /  1013.8hPa WSW 1mph /  1.6km/h 3mph /  4.8km/h 86% 0.00in /  0mm 0 W/m2
04:10 64.4 °F /  18 °C 60.1 °F /  15.6 °C 29.94in /  1013.8hPa WSW 1mph /  1.6km/h 3mph /  4.8km/h 86% 0.00in /  0mm 0 W/m2
04:20 64 °F /  17.8 °C 60.4 °F /  15.8 °C 29.94in /  1013.8hPa West 2mph /  3.2km/h 3mph /  4.8km/h 88% 0.00in /  0mm 0 W/m2
04:30 63.9 °F /  17.7 °C 60.3 °F /  15.7 °C 29.94in /  1013.8hPa West 1mph /  1.6km/h 3mph /  4.8km/h 88% 0.00in /  0mm 0 W/m2
04:40 63.9 °F /  17.7 °C 60.3 °F /  15.7 °C 29.94in /  1013.8hPa Calm   2mph /  3.2km/h 88% 0.00in /  0mm 0 W/m2
04:50 63.7 °F /  17.6 °C 60.1 °F /  15.6 °C 29.94in /  1013.8hPa Calm   1mph /  1.6km/h 88% 0.00in /  0mm 2 W/m2
05:00 63.7 °F /  17.6 °C 60.1 °F /  15.6 °C 29.93in /  1013.4hPa WNW 1mph /  1.6km/h 2mph /  3.2km/h 88% 0.00in /  0mm 5 W/m2
05:10 63.3 °F /  17.4 °C 60 °F /  15.6 °C 29.94in /  1013.8hPa NNW 1mph /  1.6km/h 2mph /  3.2km/h 89% 0.00in /  0mm 9 W/m2
05:30 63 °F /  17.2 °C 59.7 °F /  15.4 °C 29.93in /  1013.4hPa Calm   2mph /  3.2km/h 89% 0.00in /  0mm 23 W/m2
05:40 62.8 °F /  17.1 °C 59.8 °F /  15.4 °C 29.92in /  1013.1hPa Calm   2mph /  3.2km/h 90% 0.00in /  0mm 23 W/m2
05:50 62.6 °F /  17 °C 59.6 °F /  15.3 °C 29.93in /  1013.4hPa Calm   1mph /  1.6km/h 90% 0.00in /  0mm 22 W/m2
06:00 62.8 °F /  17.1 °C 59.8 °F /  15.4 °C 29.92in /  1013.1hPa Calm   2mph /  3.2km/h 90% 0.00in /  0mm 14 W/m2
06:10 63.1 °F /  17.3 °C 60.4 °F /  15.8 °C 29.96in /  1014.4hPa NNW 3mph /  4.8km/h 9mph /  14.5km/h 91% 0.00in /  0mm 2 W/m2
Knjazevac, Serbia
Compliments of Weather Underground - 2 mb